Grand Ruby — 3EIU3 — position and weather

sailwx.info

Track history (hours):
 
Tides and Currents Weather Stations Pressure Air Temp Water Temp Dewpoint Dewpoint Depression Visibility Wind Speed Wind Dir Waves Ship Positions

Grand Ruby

Last reported at 2016-May-02 08:15 UTC. Time now 2016-May-03 08:45 UTC.
Position N 30°60' W 081°11'.

Length 199 m; draft 8.3 m.

Type: Cargo ship. MMSI: 372399000.

Date/timePositionNaut miles runAvg speedWind from/ knotsBaromVisibWave heightAir tempDewpointWater temp
2016-May-02 08:15N 30°60' W 081°11'710.1
2016-May-02 07:32N 31°05' W 081°18'11 9.7
2016-May-02 06:21N 31°07' W 081°31'1 1.6
2016-May-02 05:33N 31°08' W 081°32'0 0.0
2016-May-01 10:19N 31°08' W 081°31'24211.4
2016-Apr-30 13:06N 27°32' W 079°26'1118.1
2016-Apr-30 12:29N 27°21' W 079°26'6118.1
2016-Apr-30 09:07N 26°20' W 079°26'1017.5
2016-Apr-30 08:33N 26°10' W 079°26'1717.4
2016-Apr-30 07:33N 25°53' W 079°26'8316.4
2016-Apr-30 02:32N 24°33' W 079°48'1816.5
2016-Apr-30 01:26N 24°23' W 080°05'  
Track history (hours):
 
Tides and Currents Weather Stations Pressure Air Temp Water Temp Dewpoint Dewpoint Depression Visibility Wind Speed Wind Dir Waves Ship Positions

Grand Ruby

Last reported at 2016-May-02 08:15 UTC. Time now 2016-May-03 08:45 UTC.
Position N 30°60' W 081°11'.

Length 199 m; draft 8.3 m.

Type: Cargo ship. MMSI: 372399000.

Date/timePositionNaut miles runAvg speedWind from/ knotsBaromVisibWave heightAir tempDewpointWater temp
2016-May-02 08:15N 30°60' W 081°11'710.1
2016-May-02 07:32N 31°05' W 081°18'11 9.7
2016-May-02 06:21N 31°07' W 081°31'1 1.6
2016-May-02 05:33N 31°08' W 081°32'0 0.0
2016-May-01 10:19N 31°08' W 081°31'24211.4
2016-Apr-30 13:06N 27°32' W 079°26'1118.1
2016-Apr-30 12:29N 27°21' W 079°26'6118.1
2016-Apr-30 09:07N 26°20' W 079°26'1017.5
2016-Apr-30 08:33N 26°10' W 079°26'1717.4
2016-Apr-30 07:33N 25°53' W 079°26'8316.4
2016-Apr-30 02:32N 24°33' W 079°48'1816.5
2016-Apr-30 01:26N 24°23' W 080°05'  

Dump ship's entire track history